Time;durP1;ratioP1;P1;durP2;ratioP2;P2;SDS_P1;SDS_P2;PMS_P1;PMS_P2;Temp;Humidity;BMP_temperature;BMP_pressure;BME280_temperature;BME280_humidity;BME280_pressure;Samples;Min_cycle;Max_cycle;Signal;HPM_P1;HPM_P2
2021/04/26 00:03:00;;;;;;;32.50;26.52;;;22.70;39.90;;;;;;4782710;55;22239;-37
2021/04/26 00:08:01;;;;;;;33.40;25.88;;;22.70;39.90;;;;;;4757657;55;21065;-37
2021/04/26 00:13:02;;;;;;;32.13;26.27;;;22.70;39.90;;;;;;4758183;55;21078;-36
2021/04/26 00:18:04;;;;;;;30.35;25.85;;;22.70;39.90;;;;;;4758189;55;20966;-36
2021/04/26 00:23:05;;;;;;;31.98;25.05;;;22.70;39.90;;;;;;4756832;55;20998;-36
2021/04/26 00:28:06;;;;;;;31.40;25.85;;;22.70;39.90;;;;;;4738186;59;21001;-36
2021/04/26 00:33:07;;;;;;;30.65;25.00;;;22.70;39.90;;;;;;4737929;59;21200;-28
2021/04/26 00:38:08;;;;;;;32.30;25.05;;;22.70;39.90;;;;;;4809481;55;21536;-36
2021/04/26 00:43:08;;;;;;;33.95;26.87;;;22.70;39.80;;;;;;4750303;55;20998;-36
2021/04/26 00:48:09;;;;;;;31.77;25.33;;;22.70;39.80;;;;;;4758983;55;21610;-32
2021/04/26 00:53:11;;;;;;;29.27;24.67;;;22.70;39.80;;;;;;4753406;55;20986;-36
2021/04/26 00:58:12;;;;;;;30.83;25.65;;;22.70;39.80;;;;;;4758131;55;21029;-30
2021/04/26 01:03:13;;;;;;;29.65;24.75;;;22.70;39.80;;;;;;4738549;55;21041;-36
2021/04/26 01:08:13;;;;;;;29.17;24.23;;;22.70;39.80;;;;;;4759184;55;21598;-36
2021/04/26 01:13:57;;;;;;;29.77;24.67;;;22.60;39.80;;;;;;4747309;55;21089;-36
2021/04/26 01:22:22;;;;;;;30.98;24.23;;;22.70;39.90;;;;;;4755423;55;21033;-23
2021/04/26 01:27:51;;;;;;;30.05;24.42;;;22.70;39.70;;;;;;4742394;55;21005;-25
2021/04/26 01:33:43;;;;;;;29.60;23.60;;;22.70;39.70;;;;;;4738662;55;21517;-32
2021/04/26 01:38:44;;;;;;;30.05;23.00;;;22.70;39.70;;;;;;4743125;55;21062;-36
2021/04/26 01:43:46;;;;;;;29.05;23.23;;;22.70;39.70;;;;;;4791220;55;21062;-39
2021/04/26 01:48:49;;;;;;;27.55;23.25;;;22.70;39.80;;;;;;4741400;55;21029;-32
2021/04/26 01:53:51;;;;;;;29.90;22.92;;;22.70;39.70;;;;;;4779653;55;21607;-24
2021/04/26 01:58:56;;;;;;;28.17;22.15;;;22.60;39.60;;;;;;4805387;55;21030;-29
2021/04/26 02:03:59;;;;;;;28.20;22.50;;;22.70;39.70;;;;;;4773975;55;21109;-36
2021/04/26 02:09:01;;;;;;;28.15;22.33;;;22.70;39.60;;;;;;4760354;55;20990;-36
2021/04/26 02:14:02;;;;;;;26.40;21.80;;;22.60;39.60;;;;;;4746585;55;21009;-26
2021/04/26 02:19:04;;;;;;;25.62;21.37;;;22.70;39.60;;;;;;4738459;59;20978;-36
2021/04/26 02:24:07;;;;;;;25.80;21.62;;;22.70;39.70;;;;;;4826741;55;21006;-36
2021/04/26 02:29:10;;;;;;;25.73;21.65;;;22.70;39.60;;;;;;4738296;55;20998;-37
2021/04/26 02:34:28;;;;;;;24.75;20.85;;;22.70;39.70;;;;;;4767943;55;21050;-36
2021/04/26 02:39:31;;;;;;;26.25;21.10;;;22.60;39.60;;;;;;4767608;55;21002;-36
2021/04/26 02:44:36;;;;;;;24.63;19.58;;;22.70;39.70;;;;;;4788783;55;21562;-35
2021/04/26 02:49:40;;;;;;;24.83;19.62;;;22.60;39.50;;;;;;4760251;55;21065;-33
2021/04/26 02:54:44;;;;;;;22.67;19.05;;;22.70;39.60;;;;;;4790459;55;21025;-36
2021/04/26 02:59:50;;;;;;;24.37;20.30;;;22.70;39.60;;;;;;4741542;55;20998;-37
2021/04/26 03:04:52;;;;;;;23.90;20.35;;;22.70;39.60;;;;;;4775951;55;21034;-28
2021/04/26 03:09:55;;;;;;;23.20;18.95;;;22.70;39.50;;;;;;4785998;55;20982;-28
2021/04/26 03:14:56;;;;;;;22.60;19.45;;;22.70;39.50;;;;;;4738041;59;21576;-30
2021/04/26 03:19:57;;;;;;;24.15;19.25;;;22.60;39.40;;;;;;4775469;55;21057;-32
2021/04/26 03:24:58;;;;;;;22.25;19.15;;;22.70;39.40;;;;;;4773403;55;20990;-34
2021/04/26 03:30:01;;;;;;;22.42;18.67;;;22.70;39.60;;;;;;4784090;55;21058;-32
2021/04/26 03:35:02;;;;;;;22.13;18.50;;;22.70;39.50;;;;;;4760224;55;21026;-32
2021/04/26 03:40:04;;;;;;;21.20;18.50;;;22.70;39.60;;;;;;4739520;55;21052;-31
2021/04/26 03:45:06;;;;;;;21.50;18.33;;;22.70;39.60;;;;;;4759090;55;21001;-37
2021/04/26 03:50:08;;;;;;;21.20;18.37;;;22.70;39.50;;;;;;4756084;55;21070;-35
2021/04/26 03:55:12;;;;;;;21.73;18.23;;;22.70;39.60;;;;;;4766454;55;21124;-37
2021/04/26 04:00:17;;;;;;;21.45;18.17;;;22.60;39.60;;;;;;4750811;55;21002;-36
2021/04/26 04:05:18;;;;;;;20.55;17.12;;;22.70;39.60;;;;;;4771164;55;21046;-31
2021/04/26 04:10:19;;;;;;;21.10;17.85;;;22.70;39.60;;;;;;4796356;55;21500;-38
2021/04/26 04:15:20;;;;;;;19.90;16.95;;;22.70;39.60;;;;;;4744233;55;21013;-32
2021/04/26 04:20:21;;;;;;;18.73;16.52;;;22.70;39.60;;;;;;4768141;55;21511;-36
2021/04/26 04:25:22;;;;;;;18.92;16.87;;;22.70;39.60;;;;;;4738243;59;21110;-32
2021/04/26 04:30:22;;;;;;;21.77;17.87;;;22.60;39.60;;;;;;4739173;55;21126;-37
2021/04/26 04:35:23;;;;;;;19.65;16.23;;;22.70;39.80;;;;;;4746586;55;20978;-37
2021/04/26 04:40:24;;;;;;;17.83;15.82;;;22.60;39.70;;;;;;4749677;55;21070;-38
2021/04/26 04:45:25;;;;;;;18.70;15.90;;;22.60;39.70;;;;;;4738131;59;21057;-35
2021/04/26 04:50:26;;;;;;;19.45;16.58;;;22.60;39.80;;;;;;4758807;55;21030;-35
2021/04/26 04:55:27;;;;;;;17.58;15.50;;;22.70;39.80;;;;;;4762105;55;21021;-33
2021/04/26 05:00:28;;;;;;;20.20;16.92;;;22.60;39.80;;;;;;4744163;55;21048;-34
2021/04/26 05:05:28;;;;;;;18.42;15.65;;;22.70;39.80;;;;;;4775711;55;21029;-36
2021/04/26 05:10:29;;;;;;;20.42;16.37;;;22.70;39.70;;;;;;4801516;55;20990;-35
2021/04/26 05:15:30;;;;;;;18.00;15.95;;;22.70;39.70;;;;;;4793952;55;21057;-30
2021/04/26 05:20:31;;;;;;;18.27;15.27;;;22.60;39.60;;;;;;4750832;55;21014;-37
2021/04/26 05:25:32;;;;;;;19.92;15.75;;;22.60;39.70;;;;;;4738175;59;21038;-24
2021/04/26 05:30:34;;;;;;;19.85;16.33;;;22.70;39.60;;;;;;4777453;55;21041;-28
2021/04/26 05:35:34;;;;;;;18.10;15.88;;;22.70;39.50;;;;;;4759874;55;21062;-35
2021/04/26 05:40:35;;;;;;;20.10;16.15;;;22.70;39.60;;;;;;4777352;55;20993;-34
2021/04/26 05:45:36;;;;;;;19.92;16.35;;;22.70;39.60;;;;;;4744864;55;21781;-32
2021/04/26 05:50:37;;;;;;;19.17;15.95;;;22.60;39.40;;;;;;4753548;55;21010;-35
2021/04/26 05:55:38;;;;;;;18.45;15.20;;;22.60;39.40;;;;;;4737650;59;21014;-30
2021/04/26 06:00:40;;;;;;;18.70;16.30;;;22.70;39.40;;;;;;4794780;55;21069;-22
2021/04/26 06:05:41;;;;;;;18.85;15.88;;;22.70;39.40;;;;;;4759811;55;21108;-30
2021/04/26 06:10:42;;;;;;;21.30;16.67;;;22.60;39.30;;;;;;4761186;55;21001;-33
2021/04/26 06:15:43;;;;;;;20.73;16.65;;;22.70;39.40;;;;;;4750418;55;21614;-28
2021/04/26 06:20:46;;;;;;;20.95;16.50;;;22.60;39.30;;;;;;4750951;55;21010;-28
2021/04/26 06:25:48;;;;;;;18.85;16.20;;;22.60;39.50;;;;;;4774284;55;21074;-32
2021/04/26 06:30:48;;;;;;;18.10;15.68;;;22.70;39.30;;;;;;4772480;55;21017;-33
2021/04/26 06:35:51;;;;;;;18.30;15.10;;;22.60;39.20;;;;;;4753504;55;21014;-35
2021/04/26 06:40:55;;;;;;;20.48;15.35;;;22.60;39.10;;;;;;4771366;55;21094;-33
2021/04/26 06:45:56;;;;;;;19.27;16.00;;;22.60;39.10;;;;;;4767127;55;21002;-29
2021/04/26 06:50:57;;;;;;;20.40;17.08;;;22.60;39.10;;;;;;4752481;55;21496;-34
2021/04/26 06:55:58;;;;;;;20.02;16.15;;;22.60;38.90;;;;;;4766983;55;21536;-30
2021/04/26 07:00:59;;;;;;;20.88;16.65;;;22.60;39.10;;;;;;4741637;55;21126;-28
2021/04/26 07:06:00;;;;;;;22.05;17.25;;;22.60;39.00;;;;;;4740670;55;21001;-31
2021/04/26 07:11:01;;;;;;;21.23;17.15;;;22.60;39.00;;;;;;4788980;55;21010;-33
2021/04/26 07:16:03;;;;;;;20.73;17.45;;;22.70;39.20;;;;;;4740537;55;21093;-32
2021/04/26 07:21:04;;;;;;;20.67;17.23;;;22.80;39.30;;;;;;4764387;55;21021;-31
2021/04/26 07:26:05;;;;;;;24.23;18.12;;;22.80;39.40;;;;;;4788082;55;21073;-26
2021/04/26 07:31:06;;;;;;;20.73;17.55;;;22.80;39.60;;;;;;4750695;55;21457;-26
2021/04/26 07:36:07;;;;;;;22.37;17.75;;;22.90;39.70;;;;;;4815923;55;21014;-28
2021/04/26 07:41:08;;;;;;;23.20;18.02;;;22.90;39.80;;;;;;4757078;55;20982;-30
2021/04/26 07:46:09;;;;;;;23.83;18.15;;;22.90;40.00;;;;;;4740068;55;20989;-32
2021/04/26 07:51:10;;;;;;;28.85;18.25;;;23.00;40.10;;;;;;4740764;55;21062;-34
2021/04/26 07:56:11;;;;;;;25.58;18.23;;;23.00;40.10;;;;;;4754179;55;21532;-35
2021/04/26 08:01:12;;;;;;;23.73;19.48;;;23.00;40.30;;;;;;4737571;59;21082;-29
2021/04/26 08:06:12;;;;;;;24.37;18.73;;;23.00;40.40;;;;;;4749635;55;20978;-28
2021/04/26 08:11:13;;;;;;;27.87;19.65;;;23.10;40.30;;;;;;4746467;55;20986;-24
2021/04/26 08:16:14;;;;;;;25.62;19.40;;;23.10;40.20;;;;;;4743400;55;21014;-32
2021/04/26 08:21:15;;;;;;;30.65;23.40;;;23.00;40.20;;;;;;4770244;55;21002;-31
2021/04/26 08:26:16;;;;;;;30.98;22.75;;;23.10;40.30;;;;;;4742161;55;20990;-32
2021/04/26 08:31:17;;;;;;;31.83;24.15;;;23.10;40.40;;;;;;4762568;55;21112;-29
2021/04/26 08:36:18;;;;;;;30.58;23.75;;;23.20;40.60;;;;;;4736742;59;21635;-30
2021/04/26 08:41:18;;;;;;;31.40;24.67;;;23.20;40.80;;;;;;4765668;55;21054;-33
2021/04/26 08:46:19;;;;;;;35.90;23.98;;;23.20;41.10;;;;;;4745861;55;21453;-31
2021/04/26 08:51:20;;;;;;;30.67;24.55;;;23.30;41.30;;;;;;4747809;55;21139;-31
2021/04/26 08:56:21;;;;;;;33.53;24.75;;;23.40;41.70;;;;;;4745612;55;21018;-27
2021/04/26 09:01:22;;;;;;;35.78;25.90;;;23.40;41.90;;;;;;4737932;59;21058;-22
2021/04/26 09:06:23;;;;;;;31.62;24.80;;;23.40;41.90;;;;;;4739482;55;21026;-27
2021/04/26 09:11:24;;;;;;;33.22;25.35;;;23.40;42.10;;;;;;4737566;59;21018;-30
2021/04/26 09:16:26;;;;;;;33.78;25.25;;;23.40;42.30;;;;;;4736175;59;21369;-31
2021/04/26 09:21:43;;;;;;;32.67;24.83;;;23.50;42.60;;;;;;4779377;55;21103;-29
2021/04/26 09:26:53;;;;;;;33.28;25.42;;;23.50;42.60;;;;;;4742116;55;21492;-27
2021/04/26 09:32:15;;;;;;;35.42;24.92;;;23.60;42.70;;;;;;4740474;55;20982;-29
2021/04/26 09:37:22;;;;;;;36.20;26.58;;;23.60;42.90;;;;;;4736477;59;21492;-27
2021/04/26 09:49:15;;;;;;;31.07;25.33;;;23.60;43.00;;;;;;4776641;55;21022;-29
2021/04/26 09:54:16;;;;;;;;;;;23.70;43.40;;;;;;4751468;55;21092;-28
2021/04/26 09:59:17;;;;;;;35.58;26.30;;;23.70;43.40;;;;;;4762137;55;20111;-34
2021/04/26 10:04:18;;;;;;;41.37;27.40;;;23.70;43.50;;;;;;4737094;59;21042;-34
2021/04/26 10:09:20;;;;;;;33.45;26.33;;;23.70;43.60;;;;;;4748287;55;21904;-35
2021/04/26 10:14:21;;;;;;;37.85;27.23;;;23.70;43.80;;;;;;4742691;55;21528;-32
2021/04/26 10:19:44;;;;;;;37.13;27.25;;;23.80;43.90;;;;;;4763214;55;21104;-26
2021/04/26 10:24:53;;;;;;;39.60;27.45;;;23.80;44.00;;;;;;4769182;55;21069;-29
2021/04/26 10:30:09;;;;;;;35.17;28.15;;;23.80;43.90;;;;;;4736256;56;22184;-28
2021/04/26 10:35:13;;;;;;;35.05;27.65;;;23.80;43.90;;;;;;4768504;55;21017;-32
2021/04/26 10:40:17;;;;;;;36.08;28.00;;;23.80;43.90;;;;;;4737374;59;21045;-29
2021/04/26 10:45:24;;;;;;;37.55;28.45;;;23.80;43.80;;;;;;4754854;55;21006;-31
2021/04/26 10:50:30;;;;;;;39.85;29.75;;;23.80;43.80;;;;;;4773586;55;21651;-28
2021/04/26 10:55:50;;;;;;;46.25;30.10;;;23.80;44.00;;;;;;4791575;55;21504;-29
2021/04/26 11:00:51;;;;;;;42.22;29.30;;;23.80;44.00;;;;;;4738734;55;21030;-31
2021/04/26 11:05:53;;;;;;;37.97;28.17;;;23.80;44.20;;;;;;4738681;55;20986;-28
2021/04/26 11:10:59;;;;;;;44.45;29.75;;;23.90;44.70;;;;;;4748725;55;20993;-30
2021/04/26 11:16:15;;;;;;;43.70;29.77;;;23.90;44.10;;;;;;4837188;55;21495;-34
2021/04/26 11:21:50;;;;;;;37.97;29.73;;;23.80;44.10;;;;;;4769163;55;21042;-27
2021/04/26 11:33:53;;;;;;;42.80;29.73;;;23.80;44.00;;;;;;4804366;55;21049;-31
2021/04/26 11:39:03;;;;;;;37.33;28.83;;;23.70;43.80;;;;;;4758001;55;21128;-30
2021/04/26 11:44:04;;;;;;;36.53;28.45;;;23.70;43.70;;;;;;4765399;55;21017;-27
2021/04/26 11:49:16;;;;;;;36.63;29.42;;;23.70;43.70;;;;;;4755849;55;21041;-30
2021/04/26 11:54:23;;;;;;;44.42;30.75;;;23.70;43.40;;;;;;4743114;55;21904;-28
2021/04/26 11:59:26;;;;;;;38.97;30.37;;;23.70;43.30;;;;;;4762507;55;21073;-31
2021/04/26 12:04:41;;;;;;;41.53;30.37;;;23.80;43.40;;;;;;4736478;59;21049;-28
2021/04/26 12:09:46;;;;;;;38.47;30.80;;;23.80;43.50;;;;;;4743884;55;21046;-29
2021/04/26 12:14:53;;;;;;;38.83;30.33;;;23.80;43.60;;;;;;4752472;55;21472;-33
2021/04/26 12:19:55;;;;;;;47.62;31.65;;;23.90;43.80;;;;;;4738194;59;22410;-28
2021/04/26 12:24:56;;;;;;;39.00;31.52;;;23.90;43.90;;;;;;4830662;55;21113;-23
2021/04/26 12:30:29;;;;;;;40.65;31.42;;;23.90;44.00;;;;;;4739119;55;21672;-29
2021/04/26 12:35:31;;;;;;;44.00;31.75;;;23.90;44.10;;;;;;4774260;55;21066;-30
2021/04/26 12:40:34;;;;;;;44.10;33.88;;;23.90;44.20;;;;;;4779145;55;21149;-33
2021/04/26 12:45:40;;;;;;;41.15;31.30;;;23.90;44.30;;;;;;4750882;55;21556;-28
2021/04/26 12:50:46;;;;;;;41.97;32.60;;;24.00;44.50;;;;;;4738308;59;21541;-36
2021/04/26 12:55:51;;;;;;;41.10;30.90;;;24.00;44.60;;;;;;4754583;55;21053;-28
2021/04/26 13:00:57;;;;;;;47.22;32.33;;;24.00;44.60;;;;;;4756122;55;21560;-28
2021/04/26 13:06:10;;;;;;;38.15;31.12;;;24.00;44.80;;;;;;4755496;55;21002;-31
2021/04/26 13:11:28;;;;;;;43.00;31.40;;;24.10;45.00;;;;;;4746469;55;21103;-31
2021/04/26 13:16:35;;;;;;;43.28;31.15;;;24.00;45.00;;;;;;4745790;55;21516;-26
2021/04/26 13:21:41;;;;;;;40.12;31.45;;;24.10;45.10;;;;;;4750342;55;20974;-28
2021/04/26 13:26:44;;;;;;;37.67;30.58;;;24.10;45.30;;;;;;4759759;55;21168;-32
2021/04/26 13:31:47;;;;;;;43.28;31.20;;;24.10;45.30;;;;;;4757810;55;20994;-34
2021/04/26 13:36:47;;;;;;;43.80;31.62;;;24.10;45.40;;;;;;4814385;55;21052;-33
2021/04/26 13:41:49;;;;;;;42.78;32.03;;;24.10;45.10;;;;;;4738602;59;21476;-25
2021/04/26 13:46:50;;;;;;;40.12;29.73;;;24.10;45.20;;;;;;4749154;55;21009;-27
2021/04/26 13:51:53;;;;;;;41.72;31.15;;;24.10;45.10;;;;;;4737638;59;21069;-28
2021/04/26 13:56:53;;;;;;;38.65;30.67;;;24.10;45.20;;;;;;4736747;55;21674;-31
2021/04/26 14:01:54;;;;;;;33.90;29.17;;;24.10;45.10;;;;;;4747636;55;21155;-31
2021/04/26 14:06:55;;;;;;;38.92;30.62;;;24.10;45.00;;;;;;4818754;55;21001;-31
2021/04/26 14:11:56;;;;;;;39.00;31.12;;;24.10;45.00;;;;;;4774718;55;21492;-35
2021/04/26 14:16:59;;;;;;;34.90;29.63;;;24.10;45.10;;;;;;4748042;55;21014;-30
2021/04/26 14:22:00;;;;;;;39.35;30.48;;;24.10;45.00;;;;;;4747197;55;21074;-33
2021/04/26 14:27:01;;;;;;;36.08;29.27;;;24.10;45.10;;;;;;4797708;55;21475;-34
2021/04/26 14:32:03;;;;;;;38.67;30.05;;;24.10;45.10;;;;;;4746614;55;21057;-31
2021/04/26 14:37:04;;;;;;;36.47;30.20;;;24.10;45.00;;;;;;4744566;55;21070;-35
2021/04/26 14:42:05;;;;;;;38.65;31.12;;;24.10;45.10;;;;;;4779924;55;21022;-34
2021/04/26 14:47:06;;;;;;;38.45;30.73;;;24.10;45.10;;;;;;4743074;55;20986;-36
2021/04/26 14:52:07;;;;;;;40.20;31.75;;;24.10;45.10;;;;;;4742002;55;21105;-35
2021/04/26 14:57:08;;;;;;;41.40;32.17;;;24.10;45.10;;;;;;4746616;55;21019;-34
2021/04/26 15:02:09;;;;;;;41.37;32.05;;;24.10;45.30;;;;;;4743926;55;21030;-32
2021/04/26 15:07:10;;;;;;;41.20;33.08;;;24.00;44.90;;;;;;4751192;55;21010;-35
2021/04/26 15:12:11;;;;;;;41.90;34.03;;;24.00;45.00;;;;;;4773364;55;21033;-32
2021/04/26 15:17:12;;;;;;;41.37;33.35;;;23.90;45.00;;;;;;4736660;59;21058;-33
2021/04/26 15:22:14;;;;;;;40.60;32.83;;;23.80;45.00;;;;;;4771315;55;21080;-24
2021/04/26 15:27:15;;;;;;;37.53;31.92;;;23.80;45.00;;;;;;4771191;55;20986;-30
2021/04/26 15:32:16;;;;;;;38.58;32.25;;;23.80;44.90;;;;;;4805462;55;21081;-34
2021/04/26 15:37:17;;;;;;;40.88;33.08;;;23.80;44.80;;;;;;4736579;59;21089;-36
2021/04/26 15:42:18;;;;;;;41.65;32.97;;;23.70;44.70;;;;;;4745625;55;21018;-35
2021/04/26 15:47:19;;;;;;;39.80;33.55;;;23.70;44.70;;;;;;4846058;55;21038;-29
2021/04/26 15:52:20;;;;;;;38.58;33.17;;;23.70;44.60;;;;;;4747684;55;21018;-31
2021/04/26 15:57:21;;;;;;;44.95;33.67;;;23.70;44.60;;;;;;4739326;55;21097;-31
2021/04/26 16:02:21;;;;;;;39.80;32.97;;;23.70;44.80;;;;;;4764851;55;21568;-32
2021/04/26 16:07:22;;;;;;;40.90;33.78;;;23.70;44.50;;;;;;4748355;55;21062;-29
2021/04/26 16:12:23;;;;;;;43.45;33.97;;;23.60;44.50;;;;;;4851172;55;21496;-32
2021/04/26 16:17:24;;;;;;;39.08;33.70;;;23.60;44.50;;;;;;4740570;55;21038;-32
2021/04/26 16:22:25;;;;;;;39.90;33.88;;;23.60;44.40;;;;;;4773925;55;21014;-26
2021/04/26 16:27:26;;;;;;;43.08;34.88;;;23.60;44.70;;;;;;4739484;59;20994;-34
2021/04/26 16:32:27;;;;;;;39.78;33.05;;;23.60;44.30;;;;;;4744399;55;21059;-32
2021/04/26 16:37:27;;;;;;;40.35;33.55;;;23.50;44.20;;;;;;4749279;55;21496;-36
2021/04/26 16:42:28;;;;;;;37.75;32.90;;;23.50;44.20;;;;;;4738263;55;21046;-29
2021/04/26 16:47:29;;;;;;;40.38;34.13;;;23.50;44.20;;;;;;4793372;55;21524;-34
2021/04/26 16:52:30;;;;;;;39.75;34.67;;;23.50;44.20;;;;;;4737758;59;21054;-30
2021/04/26 16:57:31;;;;;;;40.50;34.83;;;23.50;44.10;;;;;;4736824;59;21037;-29
2021/04/26 17:02:33;;;;;;;39.03;33.50;;;23.50;44.10;;;;;;4742928;55;21563;-26
2021/04/26 17:07:34;;;;;;;40.10;34.85;;;23.50;44.00;;;;;;4795683;55;21045;-33
2021/04/26 17:12:35;;;;;;;43.63;35.95;;;23.50;44.00;;;;;;4738325;59;21017;-36
2021/04/26 17:17:36;;;;;;;41.42;35.72;;;23.50;43.90;;;;;;4742548;55;21057;-33
2021/04/26 17:22:37;;;;;;;46.03;37.90;;;23.40;43.80;;;;;;4751665;55;21014;-32
2021/04/26 17:27:38;;;;;;;43.05;36.60;;;23.50;43.80;;;;;;4737999;59;21014;-30
2021/04/26 17:32:40;;;;;;;42.85;36.95;;;23.40;43.70;;;;;;4766747;55;21061;-33
2021/04/26 17:37:41;;;;;;;44.85;36.72;;;23.40;43.70;;;;;;4758221;55;21010;-34
2021/04/26 17:42:42;;;;;;;45.65;38.00;;;23.40;43.70;;;;;;4761222;55;21065;-33
2021/04/26 17:47:45;;;;;;;41.58;35.42;;;23.40;43.70;;;;;;4749226;55;21113;-34
2021/04/26 17:52:46;;;;;;;42.72;37.45;;;23.40;43.80;;;;;;4778489;55;21770;-34
2021/04/26 17:57:47;;;;;;;45.67;38.95;;;23.40;43.80;;;;;;4750162;55;21005;-33
2021/04/26 18:02:49;;;;;;;47.05;40.05;;;23.40;43.60;;;;;;4761593;55;21113;-37
2021/04/26 18:07:50;;;;;;;46.90;39.65;;;23.40;43.60;;;;;;4754698;55;21559;-36
2021/04/26 18:12:52;;;;;;;48.25;40.72;;;23.40;43.60;;;;;;4777471;55;21097;-24
2021/04/26 18:17:53;;;;;;;46.40;40.85;;;23.40;43.50;;;;;;4752012;55;21600;-33
2021/04/26 18:22:53;;;;;;;48.55;41.17;;;23.30;43.50;;;;;;4740725;55;21018;-37
2021/04/26 18:27:54;;;;;;;47.97;39.33;;;23.40;43.40;;;;;;4738069;59;21547;-33
2021/04/26 18:32:55;;;;;;;46.97;40.53;;;23.40;43.40;;;;;;4773420;55;21018;-36
2021/04/26 18:37:56;;;;;;;46.33;40.80;;;23.40;43.40;;;;;;4785202;55;21002;-30
2021/04/26 18:42:57;;;;;;;47.45;42.08;;;23.40;43.40;;;;;;4773721;55;20998;-34
2021/04/26 18:48:02;;;;;;;46.35;40.33;;;23.40;43.30;;;;;;4738682;55;21018;-25
2021/04/26 18:53:03;;;;;;;49.33;41.37;;;23.40;43.20;;;;;;4744967;55;21141;-32
2021/04/26 18:58:04;;;;;;;46.22;40.95;;;23.40;43.20;;;;;;4757747;55;20986;-29
2021/04/26 19:03:05;;;;;;;48.10;41.92;;;23.40;43.20;;;;;;4746320;55;21034;-26
2021/04/26 19:08:07;;;;;;;46.08;40.72;;;23.30;43.30;;;;;;4761044;55;21516;-38
2021/04/26 19:13:07;;;;;;;45.50;40.10;;;23.30;43.20;;;;;;4764551;55;21010;-34
2021/04/26 19:18:09;;;;;;;46.17;40.38;;;23.40;43.30;;;;;;4762977;55;21469;-33
2021/04/26 19:23:10;;;;;;;47.08;40.42;;;23.30;43.20;;;;;;4748463;55;21488;-34
2021/04/26 19:28:11;;;;;;;45.25;40.35;;;23.30;43.10;;;;;;4798148;55;21029;-34
2021/04/26 19:33:11;;;;;;;44.58;39.00;;;23.30;43.10;;;;;;4742723;55;21532;-39
2021/04/26 19:38:13;;;;;;;46.10;39.90;;;23.30;43.50;;;;;;4743351;55;20990;-36
2021/04/26 19:43:15;;;;;;;44.50;38.30;;;23.30;43.10;;;;;;4738421;59;21109;-33
2021/04/26 19:48:18;;;;;;;45.05;39.92;;;23.30;43.20;;;;;;4853859;55;21061;-36
2021/04/26 19:53:21;;;;;;;45.30;38.25;;;23.30;43.10;;;;;;4804594;55;21030;-33
2021/04/26 19:58:24;;;;;;;42.85;38.15;;;23.30;43.10;;;;;;4821757;55;21032;-36
2021/04/26 20:03:25;;;;;;;42.20;37.53;;;23.30;43.20;;;;;;4770414;55;21568;-35
2021/04/26 20:08:26;;;;;;;42.38;37.78;;;23.40;43.10;;;;;;4783737;55;21033;-35
2021/04/26 20:13:27;;;;;;;43.13;37.33;;;23.30;43.10;;;;;;4753681;55;21587;-30
2021/04/26 20:18:28;;;;;;;43.22;37.00;;;23.30;43.20;;;;;;4745605;55;21002;-34
2021/04/26 20:23:28;;;;;;;43.70;37.25;;;23.30;43.10;;;;;;4763254;55;21077;-26
2021/04/26 20:28:31;;;;;;;42.05;36.95;;;23.40;43.20;;;;;;4737880;59;20986;-32
2021/04/26 20:33:32;;;;;;;40.08;35.70;;;23.30;43.10;;;;;;4743219;55;21583;-22
2021/04/26 20:38:33;;;;;;;40.75;35.67;;;23.30;43.10;;;;;;4760581;55;20994;-30
2021/04/26 20:43:34;;;;;;;39.83;35.13;;;23.30;43.10;;;;;;4752363;55;21018;-38
2021/04/26 20:48:36;;;;;;;40.60;34.47;;;23.30;43.10;;;;;;4743347;55;21499;-31
2021/04/26 20:53:36;;;;;;;38.97;34.67;;;23.30;43.10;;;;;;4805772;55;21488;-34
2021/04/26 20:58:38;;;;;;;37.60;33.53;;;23.30;43.10;;;;;;4755937;55;21005;-34
2021/04/26 21:03:38;;;;;;;39.33;34.25;;;23.30;43.10;;;;;;4761547;55;21066;-28
2021/04/26 21:08:39;;;;;;;39.53;33.83;;;23.30;43.10;;;;;;4787061;55;21049;-34
2021/04/26 21:13:40;;;;;;;38.05;33.95;;;23.30;43.10;;;;;;4757737;55;21480;-36
2021/04/26 21:18:41;;;;;;;38.55;34.35;;;23.30;43.10;;;;;;4757385;55;21484;-28
2021/04/26 21:23:41;;;;;;;38.10;33.67;;;23.30;43.00;;;;;;4758950;55;21164;-29
2021/04/26 21:28:42;;;;;;;38.65;33.60;;;23.30;43.10;;;;;;4793499;55;20997;-31
2021/04/26 21:33:43;;;;;;;37.63;33.03;;;23.30;43.20;;;;;;4791622;55;21056;-31
2021/04/26 21:38:44;;;;;;;36.53;32.53;;;23.30;43.20;;;;;;4761481;55;21557;-27
2021/04/26 21:43:46;;;;;;;35.83;32.13;;;23.30;43.20;;;;;;4752956;55;21078;-27
2021/04/26 21:48:47;;;;;;;35.60;31.65;;;23.30;43.20;;;;;;4738303;59;21109;-34
2021/04/26 21:53:48;;;;;;;36.63;32.60;;;23.30;43.20;;;;;;4787874;55;21606;-30
2021/04/26 21:58:49;;;;;;;39.40;32.72;;;23.30;43.20;;;;;;4737957;59;21082;-33
2021/04/26 22:03:51;;;;;;;35.08;31.27;;;23.30;43.10;;;;;;4745050;55;21113;-32
2021/04/26 22:08:52;;;;;;;34.70;30.85;;;23.30;43.10;;;;;;4761369;55;20970;-35
2021/04/26 22:13:53;;;;;;;34.30;30.42;;;23.30;43.20;;;;;;4752065;55;21006;-35
2021/04/26 22:18:54;;;;;;;35.10;31.30;;;23.30;43.30;;;;;;4745224;55;21065;-31
2021/04/26 22:23:55;;;;;;;35.10;30.67;;;23.30;43.20;;;;;;4759447;55;21631;-35
2021/04/26 22:28:56;;;;;;;33.50;29.87;;;23.30;43.20;;;;;;4738209;59;21018;-32
2021/04/26 22:33:57;;;;;;;34.40;30.50;;;23.30;43.20;;;;;;4737936;59;21053;-31
2021/04/26 22:38:58;;;;;;;33.45;29.85;;;23.30;43.30;;;;;;4738827;59;21022;-32
2021/04/26 22:43:59;;;;;;;32.50;29.02;;;23.30;43.20;;;;;;4786995;55;21073;-30
2021/04/26 22:48:59;;;;;;;33.40;29.85;;;23.30;43.20;;;;;;4756738;55;20994;-29
2021/04/26 22:54:00;;;;;;;32.35;28.87;;;23.20;43.00;;;;;;4770883;55;21093;-31
2021/04/26 22:59:04;;;;;;;31.35;28.00;;;23.20;43.20;;;;;;4760282;55;21006;-30
2021/04/26 23:04:05;;;;;;;32.10;28.60;;;23.30;43.20;;;;;;4738071;55;21580;-34
2021/04/26 23:09:07;;;;;;;32.22;28.73;;;23.30;43.20;;;;;;4738359;59;21126;-37
2021/04/26 23:14:08;;;;;;;31.83;28.08;;;23.20;43.20;;;;;;4756472;55;21022;-33
2021/04/26 23:19:08;;;;;;;30.80;27.50;;;23.20;43.30;;;;;;4738623;59;21548;-36
2021/04/26 23:24:09;;;;;;;29.92;26.52;;;23.20;43.10;;;;;;4749132;55;20998;-37
2021/04/26 23:29:10;;;;;;;29.73;26.52;;;23.30;43.10;;;;;;4757694;55;21034;-30
2021/04/26 23:34:11;;;;;;;31.40;28.00;;;23.30;43.20;;;;;;4751549;55;21484;-28
2021/04/26 23:39:12;;;;;;;29.95;26.65;;;23.30;43.20;;;;;;4738246;59;21014;-35
2021/04/26 23:44:13;;;;;;;30.50;27.20;;;23.20;43.10;;;;;;4759402;55;21002;-33
2021/04/26 23:49:14;;;;;;;30.70;27.40;;;23.20;43.00;;;;;;4739009;59;21053;-33
2021/04/26 23:54:14;;;;;;;29.75;26.20;;;23.20;43.10;;;;;;4755424;55;21093;-33
2021/04/26 23:59:15;;;;;;;28.35;25.25;;;23.20;43.10;;;;;;4760391;55;21121;-28
